createdAt,value
2018-05-25T00:01:41.516Z,90.27
2018-05-25T00:04:11.034Z,85.83
2018-05-25T00:06:39.912Z,87.80
2018-05-25T00:09:08.904Z,77.13
2018-05-25T00:11:38.454Z,85.73
2018-05-25T00:14:07.265Z,85.50
2018-05-25T00:16:36.232Z,76.23
2018-05-25T00:19:05.407Z,83.63
2018-05-25T00:21:34.179Z,82.93
2018-05-25T00:24:03.999Z,77.93
2018-05-25T00:26:32.799Z,80.20
2018-05-25T00:29:01.541Z,85.97
2018-05-25T00:31:31.080Z,89.97
2018-05-25T00:34:00.684Z,86.30
2018-05-25T00:36:29.513Z,95.23
2018-05-25T00:38:58.199Z,89.50
2018-05-25T00:41:26.982Z,98.07
2018-05-25T00:43:55.849Z,99.90
2018-05-25T00:46:24.645Z,101.97
2018-05-25T00:48:53.427Z,101.33
2018-05-25T00:51:22.219Z,107.17
2018-05-25T00:53:50.950Z,103.43
2018-05-25T00:56:20.487Z,93.57
2018-05-25T00:58:49.309Z,84.33
2018-05-25T01:01:18.088Z,85.57
2018-05-25T01:03:46.939Z,87.63
2018-05-25T01:06:16.341Z,95.80
2018-05-25T01:08:45.838Z,112.00
2018-05-25T01:11:15.373Z,103.20
2018-05-25T01:13:44.729Z,114.07
2018-05-25T01:16:14.432Z,98.07
2018-05-25T01:18:43.161Z,93.77
2018-05-25T01:21:12.947Z,84.37
2018-05-25T01:23:41.761Z,92.53
2018-05-25T01:26:11.339Z,77.37
2018-05-25T01:28:40.296Z,82.53
2018-05-25T01:31:09.369Z,79.57
2018-05-25T01:33:38.226Z,85.37
2018-05-25T01:36:07.267Z,81.17
2018-05-25T01:38:36.493Z,78.20
2018-05-25T01:41:05.201Z,75.90
2018-05-25T01:43:35.052Z,88.40
2018-05-25T01:46:05.007Z,93.67
2018-05-25T01:48:33.808Z,91.47
2018-05-25T01:51:02.788Z,89.20
2018-05-25T01:53:31.559Z,85.80
2018-05-25T01:56:00.346Z,84.03
2018-05-25T01:58:29.076Z,88.70
2018-05-25T02:00:57.879Z,82.50
2018-05-25T02:03:26.697Z,78.67
2018-05-25T02:05:55.727Z,77.50
2018-05-25T02:08:25.230Z,70.93
2018-05-25T02:10:54.209Z,98.73
2018-05-25T02:13:23.072Z,89.90
2018-05-25T02:15:52.105Z,74.47
2018-05-25T02:18:20.923Z,65.70
2018-05-25T02:20:49.770Z,68.53
2018-05-25T02:23:19.355Z,58.43
2018-05-25T02:25:48.099Z,51.03
2018-05-25T02:28:16.872Z,48.83
2018-05-25T02:30:45.765Z,55.97
2018-05-25T02:33:14.574Z,59.00
2018-05-25T02:35:44.225Z,54.53
2018-05-25T02:38:13.284Z,55.67
2018-05-25T02:40:42.077Z,60.87
2018-05-25T02:43:11.181Z,56.53
2018-05-25T02:45:40.893Z,51.80
2018-05-25T02:48:10.434Z,65.57
2018-05-25T02:50:39.160Z,57.67
2018-05-25T02:53:08.185Z,62.83
2018-05-25T02:55:36.908Z,60.07
2018-05-25T02:58:06.508Z,64.00
2018-05-25T03:00:35.274Z,54.97
2018-05-25T03:03:04.215Z,56.00
2018-05-25T03:05:33.177Z,52.53
2018-05-25T03:08:02.140Z,54.20
2018-05-25T03:10:31.249Z,54.30
2018-05-25T03:13:00.127Z,51.50
2018-05-25T03:15:28.949Z,42.83
2018-05-25T03:17:58.512Z,45.87
2018-05-25T03:20:27.356Z,46.13
2018-05-25T03:22:56.933Z,54.37
2018-05-25T03:25:26.049Z,50.60
2018-05-25T03:27:54.804Z,45.53
2018-05-25T03:30:23.727Z,47.33
2018-05-25T03:32:52.640Z,44.70
2018-05-25T03:35:21.421Z,34.73
2018-05-25T03:37:50.113Z,34.97
2018-05-25T03:40:18.885Z,28.17
2018-05-25T03:42:48.444Z,37.07
2018-05-25T03:45:17.409Z,29.97
2018-05-25T03:47:46.194Z,30.17
2018-05-25T03:50:15.030Z,28.43
2018-05-25T03:52:43.759Z,29.57
2018-05-25T03:55:13.368Z,37.27
2018-05-25T03:57:42.166Z,32.23
2018-05-25T04:00:23.062Z,32.13
2018-05-25T04:02:51.851Z,32.40
2018-05-25T04:05:21.370Z,31.27
2018-05-25T04:07:50.076Z,31.30
2018-05-25T04:10:20.080Z,35.10
2018-05-25T04:12:49.557Z,32.87
2018-05-25T04:15:19.210Z,33.13
2018-05-25T04:17:47.984Z,37.03
2018-05-25T04:20:17.274Z,43.13
2018-05-25T04:22:46.167Z,44.40
2018-05-25T04:25:15.284Z,52.07
2018-05-25T04:27:44.297Z,54.50
2018-05-25T04:30:13.301Z,45.90
2018-05-25T04:32:42.104Z,53.30
2018-05-25T04:35:11.148Z,49.63
2018-05-25T04:37:39.924Z,53.07
2018-05-25T04:40:08.933Z,58.27
2018-05-25T04:42:37.673Z,68.20
2018-05-25T04:45:06.495Z,61.07
2018-05-25T04:47:36.191Z,64.07
2018-05-25T04:50:05.092Z,63.77
2018-05-25T04:52:34.108Z,58.87
2018-05-25T04:55:02.923Z,55.50
2018-05-25T04:57:31.684Z,60.47
2018-05-25T05:00:00.462Z,60.10
2018-05-25T05:02:29.611Z,59.70
2018-05-25T05:04:58.487Z,60.53
2018-05-25T05:07:27.196Z,60.37
2018-05-25T05:09:56.760Z,66.73
2018-05-25T05:12:25.717Z,64.83
2018-05-25T05:14:54.739Z,76.47
2018-05-25T05:17:23.916Z,81.33
2018-05-25T05:19:53.466Z,88.63
2018-05-25T05:22:23.229Z,94.80
2018-05-25T05:24:52.171Z,99.27
2018-05-25T05:27:20.934Z,108.93
2018-05-25T05:29:49.735Z,109.00
2018-05-25T05:32:18.941Z,103.13
2018-05-25T05:34:47.888Z,101.30
2018-05-25T05:37:17.650Z,93.50
2018-05-25T05:39:46.415Z,92.63
2018-05-25T05:42:15.468Z,86.90
2018-05-25T05:44:44.915Z,84.00
2018-05-25T05:47:14.480Z,79.60
2018-05-25T05:49:44.046Z,83.70
2018-05-25T05:52:13.613Z,79.00
2018-05-25T05:54:42.388Z,52.80
2018-05-25T05:57:11.928Z,37.50
2018-05-25T05:59:40.955Z,38.33
2018-05-25T06:02:09.748Z,36.87
2018-05-25T06:04:39.389Z,38.03
2018-05-25T06:07:08.943Z,32.87
2018-05-25T06:09:37.954Z,33.27
2018-05-25T06:12:06.938Z,34.70
2018-05-25T06:14:35.702Z,32.13
2018-05-25T06:17:04.499Z,42.07
2018-05-25T06:19:34.210Z,40.13
2018-05-25T06:22:03.245Z,40.30
2018-05-25T06:24:31.992Z,44.83
2018-05-25T06:27:00.763Z,62.50
2018-05-25T06:29:29.553Z,62.03
2018-05-25T06:31:58.297Z,78.43
2018-05-25T06:34:26.971Z,77.97
2018-05-25T06:36:55.755Z,81.80
2018-05-25T06:39:24.602Z,73.50
2018-05-25T06:41:53.496Z,67.03
2018-05-25T06:44:22.408Z,64.20
2018-05-25T06:46:51.206Z,67.37
2018-05-25T06:49:20.785Z,67.47
2018-05-25T06:51:49.653Z,58.57
2018-05-25T06:54:18.495Z,58.83
2018-05-25T06:56:47.284Z,66.83
2018-05-25T06:59:16.917Z,56.33
2018-05-25T07:01:47.072Z,61.93
2018-05-25T07:04:16.069Z,59.60
2018-05-25T07:06:44.785Z,58.67
2018-05-25T07:09:13.689Z,59.63
2018-05-25T07:11:43.330Z,56.93
2018-05-25T07:14:12.203Z,60.50
2018-05-25T07:16:41.916Z,58.20
2018-05-25T07:19:10.741Z,66.93
2018-05-25T07:21:39.619Z,53.17
2018-05-25T07:24:09.218Z,86.27
2018-05-25T07:26:38.932Z,51.90
2018-05-25T07:29:07.675Z,71.43
2018-05-25T07:31:36.855Z,56.43
2018-05-25T07:34:05.864Z,66.67
2018-05-25T07:36:34.707Z,59.83
2018-05-25T07:39:03.929Z,52.53
2018-05-25T07:41:32.853Z,71.23
2018-05-25T07:44:01.653Z,57.40
2018-05-25T07:46:31.724Z,58.33
2018-05-25T07:49:00.622Z,54.57
2018-05-25T07:51:29.620Z,77.63
2018-05-25T07:53:58.420Z,48.77
2018-05-25T07:56:27.303Z,51.07
2018-05-25T07:58:56.216Z,71.77
2018-05-25T08:01:24.984Z,62.87
2018-05-25T08:03:53.845Z,56.83
2018-05-25T08:06:22.724Z,65.93
2018-05-25T08:08:51.770Z,62.97
2018-05-25T08:11:20.934Z,136.03
2018-05-25T08:13:49.794Z,69.33
2018-05-25T08:16:18.958Z,35.83
2018-05-25T08:18:47.781Z,27.93
2018-05-25T08:21:17.329Z,45.03
2018-05-25T08:23:47.190Z,53.67
2018-05-25T08:26:16.721Z,37.40
2018-05-25T08:28:45.664Z,40.77
2018-05-25T08:31:14.937Z,14.40
2018-05-25T08:33:44.584Z,21.33
2018-05-25T08:36:14.177Z,20.60
2018-05-25T08:38:43.029Z,25.17
2018-05-25T08:41:11.860Z,27.20
2018-05-25T08:43:41.495Z,19.10
2018-05-25T08:46:10.223Z,11.20
2018-05-25T08:48:39.757Z,24.37
2018-05-25T08:51:08.800Z,20.60
2018-05-25T08:53:37.645Z,18.20
2018-05-25T08:56:06.543Z,22.10
2018-05-25T08:58:35.664Z,15.40
2018-05-25T09:01:04.726Z,58.50
2018-05-25T09:03:33.956Z,12.60
2018-05-25T09:06:02.945Z,35.83
2018-05-25T09:08:34.386Z,19.63
2018-05-25T09:11:03.770Z,13.77
2018-05-25T09:13:33.336Z,13.60
2018-05-25T09:16:02.113Z,25.50
2018-05-25T09:18:30.993Z,22.20
2018-05-25T09:21:00.681Z,28.43
2018-05-25T09:23:30.272Z,16.63
2018-05-25T09:25:59.981Z,46.20
2018-05-25T09:28:28.847Z,21.57
2018-05-25T09:30:57.704Z,14.40
2018-05-25T09:33:26.504Z,21.00
2018-05-25T09:35:55.393Z,15.37
2018-05-25T09:38:24.222Z,12.77
2018-05-25T09:40:53.141Z,16.97
2018-05-25T09:43:22.102Z,29.60
2018-05-25T09:45:52.037Z,14.13
2018-05-25T09:48:21.756Z,23.07
2018-05-25T09:50:52.328Z,15.27
2018-05-25T09:53:22.605Z,23.40
2018-05-25T09:55:52.031Z,17.10
2018-05-25T09:58:20.909Z,21.47
2018-05-25T10:00:49.831Z,24.87
2018-05-25T10:03:18.762Z,15.63
2018-05-25T10:05:47.687Z,28.10
2018-05-25T10:08:17.597Z,23.87
2018-05-25T10:10:46.461Z,16.30
2018-05-25T10:13:15.375Z,24.47
2018-05-25T10:15:45.223Z,32.17
2018-05-25T10:18:14.128Z,17.03
2018-05-25T10:20:43.000Z,23.03
2018-05-25T10:23:12.602Z,25.00
2018-05-25T10:25:41.410Z,12.20
2018-05-25T10:28:10.800Z,23.10
2018-05-25T10:30:40.601Z,21.37
2018-05-25T10:33:09.627Z,21.73
2018-05-25T10:35:39.373Z,19.83
2018-05-25T10:38:08.259Z,13.87
2018-05-25T10:40:37.265Z,13.50
2018-05-25T10:43:06.051Z,27.47
2018-05-25T10:45:34.905Z,18.07
2018-05-25T10:48:03.917Z,16.07
2018-05-25T10:50:33.130Z,11.93
2018-05-25T10:53:02.890Z,17.37
2018-05-25T10:55:31.677Z,21.27
2018-05-25T10:58:00.561Z,17.43
2018-05-25T11:00:29.444Z,13.13
2018-05-25T11:02:58.401Z,13.60
2018-05-25T11:05:27.486Z,15.50
2018-05-25T11:07:56.178Z,14.83
2018-05-25T11:10:24.970Z,16.10
2018-05-25T11:12:54.052Z,23.50
2018-05-25T11:15:23.005Z,20.60
2018-05-25T11:17:52.014Z,26.40
2018-05-25T11:20:20.887Z,13.93
2018-05-25T11:22:50.090Z,18.20
2018-05-25T11:25:19.094Z,16.60
2018-05-25T11:27:48.186Z,18.37
2018-05-25T11:30:17.201Z,15.53
2018-05-25T11:32:46.079Z,13.50
2018-05-25T11:35:14.902Z,17.47
2018-05-25T11:37:43.789Z,15.13
2018-05-25T11:40:12.843Z,13.07
2018-05-25T11:42:41.602Z,21.27
2018-05-25T11:45:10.462Z,16.27
2018-05-25T11:47:39.514Z,31.50
2018-05-25T11:50:08.511Z,18.63
2018-05-25T11:52:37.293Z,19.80
2018-05-25T11:55:06.223Z,17.10
2018-05-25T11:57:35.224Z,16.30
2018-05-25T12:00:04.931Z,19.77
2018-05-25T12:02:33.696Z,17.97
2018-05-25T12:05:02.667Z,15.67
2018-05-25T12:07:31.498Z,16.00
2018-05-25T12:10:00.298Z,18.27
2018-05-25T12:12:29.988Z,19.93
2018-05-25T12:14:58.926Z,19.10
2018-05-25T12:17:27.977Z,22.67
2018-05-25T12:19:57.608Z,17.83
2018-05-25T12:22:27.207Z,19.67
2018-05-25T12:24:56.137Z,23.87
2018-05-25T12:27:25.101Z,26.20
2018-05-25T12:29:55.058Z,19.43
2018-05-25T12:32:23.781Z,16.07
2018-05-25T12:34:53.439Z,21.90
2018-05-25T12:37:23.382Z,18.33
2018-05-25T12:39:52.334Z,24.23
2018-05-25T12:42:21.214Z,27.77
2018-05-25T12:45:02.672Z,18.53
2018-05-25T12:47:32.176Z,25.07
2018-05-25T12:50:01.249Z,17.20
2018-05-25T12:52:30.222Z,22.90
2018-05-25T12:54:59.051Z,17.73
2018-05-25T12:57:28.862Z,19.33
2018-05-25T12:59:57.964Z,22.57
2018-05-25T13:02:26.951Z,20.27
2018-05-25T13:04:56.047Z,21.83
2018-05-25T13:07:24.859Z,16.50
2018-05-25T13:09:54.532Z,15.50
2018-05-25T13:12:23.346Z,16.97
2018-05-25T13:14:52.311Z,19.80
2018-05-25T13:17:21.361Z,23.90
2018-05-25T13:19:51.556Z,18.57
2018-05-25T13:22:20.640Z,16.40
2018-05-25T13:24:54.229Z,20.27
2018-05-25T13:27:23.185Z,16.47
2018-05-25T13:29:52.074Z,22.17
2018-05-25T13:32:20.923Z,24.20
2018-05-25T13:34:50.661Z,20.37
2018-05-25T13:37:23.312Z,22.13
2018-05-25T13:39:53.116Z,25.67
2018-05-25T13:42:22.466Z,23.53
2018-05-25T13:44:58.411Z,22.00
2018-05-25T13:47:28.500Z,20.83
2018-05-25T13:49:58.096Z,22.03
2018-05-25T13:52:27.711Z,18.27
2018-05-25T13:54:59.704Z,15.73
2018-05-25T13:57:30.241Z,21.63
2018-05-25T14:00:00.113Z,20.33
2018-05-25T14:02:29.256Z,18.80
2018-05-25T14:04:58.270Z,28.80
2018-05-25T14:07:27.507Z,38.80
2018-05-25T14:09:57.733Z,28.63
2018-05-25T14:12:27.485Z,33.77
2018-05-25T14:14:56.646Z,32.47
2018-05-25T14:17:32.584Z,26.40
2018-05-25T14:20:04.201Z,19.03
2018-05-25T14:22:33.980Z,14.37
2018-05-25T14:25:04.588Z,25.40
2018-05-25T14:27:34.075Z,22.20
2018-05-25T14:30:02.911Z,29.13
2018-05-25T14:32:31.902Z,23.20
2018-05-25T14:35:00.660Z,19.30
2018-05-25T14:37:29.562Z,35.90
2018-05-25T14:39:58.686Z,37.57
2018-05-25T14:42:27.724Z,26.50
2018-05-25T14:44:56.831Z,34.87
2018-05-25T14:47:26.863Z,46.43
2018-05-25T14:49:55.688Z,44.27
2018-05-25T14:52:25.210Z,46.97
2018-05-25T14:54:54.150Z,22.63
2018-05-25T14:57:23.074Z,17.70
2018-05-25T14:59:52.606Z,23.40
2018-05-25T15:02:21.731Z,18.77
2018-05-25T15:04:50.723Z,19.37
2018-05-25T15:07:19.556Z,42.60
2018-05-25T15:09:48.376Z,33.63
2018-05-25T15:12:17.180Z,22.80
2018-05-25T15:14:46.201Z,29.03
2018-05-25T15:17:14.891Z,38.87
2018-05-25T15:19:44.170Z,56.03
2018-05-25T15:22:13.042Z,25.47
2018-05-25T15:24:41.860Z,15.90
2018-05-25T15:27:10.967Z,18.97
2018-05-25T15:29:39.797Z,23.20
2018-05-25T15:32:08.759Z,13.80
2018-05-25T15:34:38.484Z,12.93
2018-05-25T15:37:07.289Z,11.90
2018-05-25T15:39:36.084Z,14.10
2018-05-25T15:42:05.564Z,15.77
2018-05-25T15:44:34.343Z,22.10
2018-05-25T15:47:03.061Z,38.27
2018-05-25T15:49:31.810Z,23.13
2018-05-25T15:52:00.687Z,18.93
2018-05-25T15:54:30.188Z,22.97
2018-05-25T15:56:59.739Z,19.20
2018-05-25T15:59:28.580Z,20.87
2018-05-25T16:01:57.556Z,22.90
2018-05-25T16:04:27.692Z,22.30
2018-05-25T16:06:56.814Z,23.40
2018-05-25T16:09:25.752Z,19.30
2018-05-25T16:11:54.505Z,23.97
2018-05-25T16:14:23.616Z,24.90
2018-05-25T16:16:52.873Z,24.37
2018-05-25T16:19:21.727Z,23.83
2018-05-25T16:21:51.513Z,28.70
2018-05-25T16:24:20.266Z,41.67
2018-05-25T16:26:49.109Z,39.20
2018-05-25T16:29:17.885Z,47.77
2018-05-25T16:31:46.676Z,50.23
2018-05-25T16:34:15.532Z,50.60
2018-05-25T16:36:44.306Z,64.27
2018-05-25T16:39:13.178Z,61.13
2018-05-25T16:41:42.194Z,68.83
2018-05-25T16:44:10.912Z,53.40
2018-05-25T16:46:39.885Z,37.07
2018-05-25T16:49:08.746Z,36.37
2018-05-25T16:51:38.270Z,33.23
2018-05-25T16:54:08.221Z,41.97
2018-05-25T16:56:37.029Z,40.93
2018-05-25T16:59:05.785Z,36.10
2018-05-25T17:01:34.706Z,38.27
2018-05-25T17:04:03.428Z,34.83
2018-05-25T17:06:32.234Z,28.40
2018-05-25T17:09:00.911Z,29.73
2018-05-25T17:11:29.715Z,37.53
2018-05-25T17:13:58.378Z,36.83
2018-05-25T17:16:27.983Z,48.90
2018-05-25T17:18:57.045Z,48.73
2018-05-25T17:21:25.790Z,41.00
2018-05-25T17:23:54.563Z,41.57
2018-05-25T17:26:23.455Z,37.70
2018-05-25T17:28:52.225Z,44.63
2018-05-25T17:31:21.795Z,41.33
2018-05-25T17:33:50.997Z,38.57
2018-05-25T17:36:21.476Z,44.77
2018-05-25T17:38:50.116Z,49.90
2018-05-25T17:41:18.930Z,37.67
2018-05-25T17:43:47.733Z,35.93
2018-05-25T17:46:16.865Z,39.77
2018-05-25T17:48:45.685Z,38.47
2018-05-25T17:51:14.795Z,39.80
2018-05-25T17:53:44.294Z,25.27
2018-05-25T17:56:13.832Z,27.40
2018-05-25T17:58:42.612Z,34.33
2018-05-25T18:01:12.109Z,31.77
2018-05-25T18:03:40.934Z,36.13
2018-05-25T18:06:10.601Z,39.47
2018-05-25T18:08:40.431Z,43.43
2018-05-25T18:11:09.477Z,37.77
2018-05-25T18:13:38.158Z,46.97
2018-05-25T18:16:06.890Z,60.83
2018-05-25T18:18:35.659Z,51.30
2018-05-25T18:21:04.686Z,43.33
2018-05-25T18:23:33.785Z,43.70
2018-05-25T18:26:02.568Z,44.40
2018-05-25T18:28:31.270Z,44.60
2018-05-25T18:31:00.038Z,44.07
2018-05-25T18:33:28.796Z,42.73
2018-05-25T18:35:58.343Z,41.73
2018-05-25T18:38:27.110Z,48.00
2018-05-25T18:40:56.342Z,61.50
2018-05-25T18:43:25.178Z,49.17
2018-05-25T18:45:54.705Z,65.80
2018-05-25T18:48:24.160Z,51.40
2018-05-25T18:50:53.476Z,80.00
2018-05-25T18:53:22.297Z,45.80
2018-05-25T18:55:51.116Z,34.67
2018-05-25T18:58:20.142Z,56.43
2018-05-25T19:00:48.960Z,75.40
2018-05-25T19:03:18.571Z,49.63
2018-05-25T19:05:48.065Z,51.43
2018-05-25T19:08:16.808Z,62.40
2018-05-25T19:10:45.828Z,67.17
2018-05-25T19:13:14.458Z,84.40
2018-05-25T19:15:43.193Z,84.37
2018-05-25T19:18:11.963Z,86.80
2018-05-25T19:20:40.824Z,75.63
2018-05-25T19:23:09.688Z,65.13
2018-05-25T19:25:39.290Z,74.83
2018-05-25T19:28:09.020Z,53.07
2018-05-25T19:30:38.578Z,61.37
2018-05-25T19:33:07.443Z,42.50
2018-05-25T19:35:36.221Z,53.63
2018-05-25T19:38:05.190Z,42.37
2018-05-25T19:40:34.756Z,46.63
2018-05-25T19:43:03.502Z,48.30
2018-05-25T19:45:32.396Z,55.53
2018-05-25T19:48:04.666Z,42.43
2018-05-25T19:50:33.690Z,68.40
2018-05-25T19:53:02.404Z,60.80
2018-05-25T19:55:32.012Z,46.87
2018-05-25T19:58:01.867Z,47.87
2018-05-25T20:00:30.581Z,42.87
2018-05-25T20:02:59.677Z,44.10
2018-05-25T20:05:28.731Z,53.80
2018-05-25T20:07:58.369Z,52.53
2018-05-25T20:10:27.184Z,45.47
2018-05-25T20:12:55.946Z,54.83
2018-05-25T20:15:24.702Z,46.00
2018-05-25T20:17:54.218Z,42.53
2018-05-25T20:20:23.053Z,65.53
2018-05-25T20:22:52.652Z,43.40
2018-05-25T20:25:21.409Z,34.33
2018-05-25T20:27:58.379Z,36.97
2018-05-25T20:30:29.208Z,42.33
2018-05-25T20:32:59.270Z,44.70
2018-05-25T20:35:29.170Z,44.90
2018-05-25T20:37:58.280Z,36.10
2018-05-25T20:40:28.356Z,37.83
2018-05-25T20:42:57.875Z,41.23
2018-05-25T20:45:26.553Z,38.80
2018-05-25T20:47:55.761Z,48.23
2018-05-25T20:50:27.397Z,45.37
2018-05-25T20:52:57.465Z,45.80
2018-05-25T20:55:27.103Z,40.93
2018-05-25T20:57:55.811Z,46.13
2018-05-25T21:00:25.689Z,56.47
2018-05-25T21:02:55.183Z,49.43
2018-05-25T21:05:23.991Z,43.50
2018-05-25T21:07:52.714Z,50.37
2018-05-25T21:10:22.686Z,53.57
2018-05-25T21:15:27.553Z,47.20
2018-05-25T21:17:56.281Z,49.93
2018-05-25T21:20:24.882Z,40.87
2018-05-25T21:22:56.857Z,43.87
2018-05-25T21:25:25.763Z,47.87
2018-05-25T21:27:58.499Z,63.80
2018-05-25T21:30:28.221Z,55.60
2018-05-25T21:32:56.961Z,51.20
2018-05-25T21:35:27.176Z,57.47
2018-05-25T21:37:55.989Z,54.33
2018-05-25T21:40:25.540Z,49.60
2018-05-25T21:42:54.331Z,48.50
2018-05-25T21:45:27.474Z,47.63
2018-05-25T21:47:56.251Z,52.37
2018-05-25T21:50:25.945Z,50.43
2018-05-25T21:52:54.790Z,49.73
2018-05-25T21:55:23.700Z,47.47
2018-05-25T21:57:52.515Z,46.90
2018-05-25T22:00:21.337Z,41.57
2018-05-25T22:02:50.565Z,54.77
2018-05-25T22:05:20.008Z,61.80
2018-05-25T22:07:48.875Z,55.13
2018-05-25T22:10:17.651Z,57.50
2018-05-25T22:12:46.409Z,59.00
2018-05-25T22:15:15.127Z,54.63
2018-05-25T22:17:43.979Z,49.00
2018-05-25T22:20:12.772Z,60.50
2018-05-25T22:22:42.757Z,51.57
2018-05-25T22:25:11.578Z,50.23
2018-05-25T22:27:40.263Z,51.87
2018-05-25T22:30:09.837Z,49.50
2018-05-25T22:32:38.640Z,50.67
2018-05-25T22:35:07.330Z,49.47
2018-05-25T22:37:36.767Z,45.53
2018-05-25T22:40:05.654Z,49.77
2018-05-25T22:42:46.230Z,45.63
2018-05-25T22:45:32.822Z,38.87
2018-05-25T22:48:19.385Z,40.47
2018-05-25T22:51:06.034Z,40.70
2018-05-25T22:53:45.843Z,45.87
2018-05-25T22:56:14.775Z,49.90
2018-05-25T22:58:44.557Z,47.07
2018-05-25T23:01:13.401Z,36.83
2018-05-25T23:03:42.607Z,39.23
2018-05-25T23:06:11.895Z,35.93
2018-05-25T23:08:40.745Z,37.60
2018-05-25T23:11:09.588Z,38.37
2018-05-25T23:13:38.367Z,41.57
2018-05-25T23:16:07.141Z,42.73
2018-05-25T23:18:35.998Z,44.00
2018-05-25T23:21:04.889Z,39.77
2018-05-25T23:23:33.965Z,40.93
2018-05-25T23:26:02.785Z,46.23
2018-05-25T23:28:31.720Z,48.03
2018-05-25T23:31:00.544Z,44.07
2018-05-25T23:33:29.623Z,37.37
2018-05-25T23:35:58.737Z,45.77
2018-05-25T23:38:27.735Z,41.63
2018-05-25T23:40:56.496Z,49.17
2018-05-25T23:43:25.162Z,54.83
2018-05-25T23:45:54.081Z,44.70
2018-05-25T23:48:23.069Z,52.40
2018-05-25T23:50:51.886Z,56.80
2018-05-25T23:53:20.813Z,50.00
2018-05-25T23:55:50.530Z,54.67
2018-05-25T23:58:20.041Z,65.13
